Boeing 737-883 from SAS Braathens at Amsterdam.
 Regi:LN-RCX  LARGER
 MSN Year:30196 2000
 Date of picture:2007-04-26 09:24
 Position:final 36R
 Flight: ARR GEN BU 821 Oslo Gardemoen Airport Norway
 Logs: OSL Oslo BU 821 SAS Norway 9:35 AM 9:31 AM Landed On-time 738
 Metar 26/04/2007 08:55 METAR EHAM 260855Z 02006KT 320V070 4500 BR NSC 20/14 Q1018 BECMG 6000=
 Hits: 125 ID: 1421

Debriefing: Photographed movements of Airports in NW-Europe.
The images of our site attendant is in authorisation from Queen of Sky.
Copying of images of this site have been prohibited in which manner without the authorisation of the photographer.
In behalf of the crew :"Thank you visiting us" - Contact
Factsheets Boeing, 737-883, SAS Braathens, made by De Plane! © 2006 - 2022 All rights reserved


.